createdAt,value
2017-04-24T00:00:35.819Z,12.13
2017-04-24T00:01:34.811Z,12.27
2017-04-24T00:02:34.281Z,13.15
2017-04-24T00:03:33.325Z,13.20
2017-04-24T00:04:31.952Z,13.18
2017-04-24T00:05:30.999Z,12.83
2017-04-24T00:06:30.027Z,13.58
2017-04-24T00:07:28.647Z,14.02
2017-04-24T00:08:27.644Z,13.32
2017-04-24T00:09:26.243Z,11.05
2017-04-24T00:10:25.228Z,12.95
2017-04-24T00:11:24.215Z,11.43
2017-04-24T00:12:23.269Z,12.33
2017-04-24T00:13:21.862Z,12.62
2017-04-24T00:14:20.884Z,12.33
2017-04-24T00:15:19.431Z,12.68
2017-04-24T00:16:18.424Z,12.90
2017-04-24T00:17:17.451Z,13.70
2017-04-24T00:18:16.425Z,13.22
2017-04-24T00:19:15.046Z,13.67
2017-04-24T00:20:14.019Z,12.15
2017-04-24T00:21:13.144Z,12.95
2017-04-24T00:22:12.150Z,12.60
2017-04-24T00:23:11.133Z,13.32
2017-04-24T00:24:10.168Z,12.75
2017-04-24T00:25:09.134Z,14.60
2017-04-24T00:26:08.289Z,14.85
2017-04-24T00:27:07.351Z,12.80
2017-04-24T00:28:06.485Z,13.62
2017-04-24T00:29:05.512Z,14.73
2017-04-24T00:30:04.176Z,14.35
2017-04-24T00:31:03.315Z,14.27
2017-04-24T00:32:02.330Z,14.35
2017-04-24T00:33:01.461Z,14.37
2017-04-24T00:34:00.527Z,13.82
2017-04-24T00:34:59.244Z,13.45
2017-04-24T00:35:58.291Z,15.97
2017-04-24T00:36:57.309Z,15.60
2017-04-24T00:37:56.292Z,15.83
2017-04-24T00:38:55.348Z,13.33
2017-04-24T00:39:54.384Z,15.43
2017-04-24T00:40:53.371Z,13.88
2017-04-24T00:41:52.324Z,16.08
2017-04-24T00:42:50.971Z,17.07
2017-04-24T00:43:49.985Z,16.50
2017-04-24T00:44:48.960Z,15.92
2017-04-24T00:45:48.056Z,16.98
2017-04-24T00:46:47.008Z,15.22
2017-04-24T00:47:46.023Z,17.48
2017-04-24T00:48:45.569Z,15.75
2017-04-24T00:49:44.591Z,15.03
2017-04-24T00:50:43.549Z,19.47
2017-04-24T00:51:42.567Z,15.68
2017-04-24T00:52:41.267Z,16.12
2017-04-24T00:53:40.276Z,14.30
2017-04-24T00:54:39.284Z,15.52
2017-04-24T00:55:38.268Z,15.38
2017-04-24T00:56:37.298Z,16.35
2017-04-24T00:57:35.875Z,17.07
2017-04-24T00:58:34.466Z,15.62
2017-04-24T00:59:33.583Z,16.30
2017-04-24T01:00:32.628Z,15.53
2017-04-24T01:01:31.251Z,14.80
2017-04-24T01:02:30.203Z,15.73
2017-04-24T01:03:29.220Z,14.75
2017-04-24T01:04:28.136Z,16.27
2017-04-24T01:05:27.178Z,18.42
2017-04-24T01:06:26.211Z,15.73
2017-04-24T01:07:25.235Z,14.98
2017-04-24T01:08:24.231Z,15.08
2017-04-24T01:09:23.256Z,15.55
2017-04-24T01:10:22.310Z,14.65
2017-04-24T01:11:21.292Z,14.35
2017-04-24T01:12:20.283Z,15.18
2017-04-24T01:13:19.227Z,16.33
2017-04-24T01:14:17.910Z,14.07
2017-04-24T01:15:16.544Z,15.83
2017-04-24T01:16:15.488Z,15.57
2017-04-24T01:17:14.432Z,15.73
2017-04-24T01:18:13.442Z,15.52
2017-04-24T01:19:12.470Z,13.90
2017-04-24T01:20:11.083Z,14.92
2017-04-24T01:21:10.070Z,15.17
2017-04-24T01:22:09.014Z,16.30
2017-04-24T01:23:08.033Z,14.98
2017-04-24T01:24:07.156Z,15.32
2017-04-24T01:25:06.135Z,14.87
2017-04-24T01:26:05.087Z,15.05
2017-04-24T01:27:04.067Z,15.22
2017-04-24T01:28:03.071Z,14.48
2017-04-24T01:29:02.042Z,14.80
2017-04-24T01:30:01.033Z,14.17
2017-04-24T01:31:00.067Z,14.53
2017-04-24T01:31:59.032Z,14.82
2017-04-24T01:32:58.204Z,15.65
2017-04-24T01:33:57.663Z,14.27
2017-04-24T01:34:56.652Z,15.52
2017-04-24T01:35:55.657Z,14.00
2017-04-24T01:36:54.680Z,15.23
2017-04-24T01:37:54.035Z,15.92
2017-04-24T01:38:53.086Z,14.82
2017-04-24T01:39:51.658Z,16.20
2017-04-24T01:40:50.679Z,14.67
2017-04-24T01:41:49.758Z,14.43
2017-04-24T01:42:48.723Z,15.98
2017-04-24T01:43:47.732Z,14.87
2017-04-24T01:44:46.811Z,14.12
2017-04-24T01:45:47.116Z,14.53
2017-04-24T01:46:46.121Z,13.70
2017-04-24T01:47:45.112Z,13.33
2017-04-24T01:48:43.690Z,15.55
2017-04-24T01:49:42.753Z,14.30
2017-04-24T01:50:41.694Z,14.60
2017-04-24T01:51:40.329Z,14.15
2017-04-24T01:52:39.384Z,15.67
2017-04-24T01:53:38.368Z,14.42
2017-04-24T01:54:37.335Z,15.28
2017-04-24T01:55:35.831Z,14.42
2017-04-24T01:56:34.915Z,14.73
2017-04-24T01:57:33.930Z,14.47
2017-04-24T01:58:32.885Z,14.05
2017-04-24T01:59:31.846Z,13.32
2017-04-24T02:00:30.987Z,14.10
2017-04-24T02:01:30.408Z,13.72
2017-04-24T02:02:29.428Z,13.98
2017-04-24T02:03:28.346Z,14.18
2017-04-24T02:04:27.384Z,14.10
2017-04-24T02:05:26.643Z,14.27
2017-04-24T02:06:25.251Z,14.48
2017-04-24T02:07:24.818Z,14.00
2017-04-24T02:08:23.843Z,14.85
2017-04-24T02:09:22.821Z,14.40
2017-04-24T02:10:21.760Z,14.45
2017-04-24T02:11:20.849Z,14.42
2017-04-24T02:12:19.827Z,14.43
2017-04-24T02:13:18.817Z,14.55
2017-04-24T02:14:17.847Z,13.53
2017-04-24T02:15:16.778Z,14.18
2017-04-24T02:16:15.729Z,15.23
2017-04-24T02:17:14.702Z,13.80
2017-04-24T02:18:13.727Z,14.80
2017-04-24T02:19:12.709Z,14.45
2017-04-24T02:20:11.742Z,14.63
2017-04-24T02:21:10.363Z,14.13
2017-04-24T02:22:09.332Z,14.72
2017-04-24T02:23:08.352Z,16.03
2017-04-24T02:24:07.325Z,14.27
2017-04-24T02:25:05.915Z,13.90
2017-04-24T02:26:05.620Z,13.33
2017-04-24T02:27:04.605Z,14.80
2017-04-24T02:28:03.647Z,12.87
2017-04-24T02:29:02.267Z,13.72
2017-04-24T02:30:00.855Z,15.70
2017-04-24T02:30:59.795Z,14.80
2017-04-24T02:31:58.851Z,13.23
2017-04-24T02:32:57.810Z,14.37
2017-04-24T02:33:56.811Z,14.02
2017-04-24T02:34:55.800Z,14.92
2017-04-24T02:35:54.730Z,13.52
2017-04-24T02:36:53.747Z,16.02
2017-04-24T02:37:52.750Z,15.37
2017-04-24T02:38:51.752Z,14.62
2017-04-24T02:39:50.691Z,15.78
2017-04-24T02:40:50.050Z,16.72
2017-04-24T02:41:49.031Z,15.00
2017-04-24T02:42:48.020Z,14.75
2017-04-24T02:43:47.034Z,15.63
2017-04-24T02:44:45.999Z,14.47
2017-04-24T02:45:44.535Z,15.45
2017-04-24T02:46:43.526Z,15.22
2017-04-24T02:47:42.591Z,14.35
2017-04-24T02:48:41.585Z,14.53
2017-04-24T02:49:40.917Z,13.73
2017-04-24T02:50:39.907Z,15.33
2017-04-24T02:51:38.871Z,15.42
2017-04-24T02:52:37.865Z,14.98
2017-04-24T02:53:36.847Z,17.88
2017-04-24T02:54:35.839Z,15.20
2017-04-24T02:55:34.781Z,13.92
2017-04-24T02:56:33.795Z,14.52
2017-04-24T02:57:33.455Z,15.27
2017-04-24T02:58:32.445Z,14.88
2017-04-24T02:59:31.782Z,15.10
2017-04-24T03:00:30.775Z,14.78
2017-04-24T03:01:29.763Z,15.20
2017-04-24T03:02:28.695Z,14.08
2017-04-24T03:03:28.093Z,14.67
2017-04-24T03:04:27.213Z,15.97
2017-04-24T03:05:26.175Z,14.13
2017-04-24T03:06:25.247Z,15.00
2017-04-24T03:07:24.769Z,13.68
2017-04-24T03:08:23.711Z,14.15
2017-04-24T03:09:23.068Z,15.33
2017-04-24T03:10:22.120Z,15.27
2017-04-24T03:11:21.167Z,15.73
2017-04-24T03:12:20.139Z,14.48
2017-04-24T03:13:18.711Z,13.67
2017-04-24T03:14:17.716Z,12.42
2017-04-24T03:15:16.678Z,13.60
2017-04-24T03:16:15.684Z,14.25
2017-04-24T03:17:14.688Z,13.63
2017-04-24T03:18:13.659Z,12.60
2017-04-24T03:19:12.247Z,13.37
2017-04-24T03:20:11.222Z,13.65
2017-04-24T03:21:10.215Z,12.55
2017-04-24T03:22:08.816Z,14.32
2017-04-24T03:23:07.799Z,13.57
2017-04-24T03:24:06.843Z,15.75
2017-04-24T03:25:05.442Z,13.60
2017-04-24T03:26:04.460Z,13.58
2017-04-24T03:27:03.435Z,13.45
2017-04-24T03:28:02.406Z,13.08
2017-04-24T03:29:01.388Z,13.07
2017-04-24T03:30:00.355Z,14.18
2017-04-24T03:30:59.308Z,14.25
2017-04-24T03:31:57.816Z,13.35
2017-04-24T03:32:56.843Z,14.63
2017-04-24T03:33:55.847Z,14.87
2017-04-24T03:34:55.038Z,13.98
2017-04-24T03:35:54.452Z,14.90
2017-04-24T03:36:53.435Z,13.65
2017-04-24T03:37:52.411Z,12.98
2017-04-24T03:38:51.367Z,13.87
2017-04-24T03:39:50.298Z,13.67
2017-04-24T03:40:49.258Z,13.50
2017-04-24T03:41:48.256Z,13.83
2017-04-24T03:42:46.884Z,12.82
2017-04-24T03:43:45.793Z,15.07
2017-04-24T03:44:44.779Z,14.32
2017-04-24T03:45:43.751Z,13.83
2017-04-24T03:46:42.693Z,13.78
2017-04-24T03:47:42.089Z,14.63
2017-04-24T03:48:41.184Z,15.47
2017-04-24T03:49:40.107Z,14.47
2017-04-24T03:50:39.095Z,14.28
2017-04-24T03:51:37.998Z,14.38
2017-04-24T03:52:36.560Z,13.62
2017-04-24T03:53:35.531Z,13.92
2017-04-24T03:54:34.515Z,15.85
2017-04-24T03:55:33.107Z,13.78
2017-04-24T03:56:32.047Z,13.28
2017-04-24T03:57:31.008Z,14.43
2017-04-24T03:58:29.566Z,14.02
2017-04-24T03:59:28.555Z,14.00
2017-04-24T04:00:28.026Z,14.00
2017-04-24T04:01:26.599Z,14.13
2017-04-24T04:02:25.147Z,14.82
2017-04-24T04:03:24.103Z,15.33
2017-04-24T04:04:22.626Z,14.62
2017-04-24T04:05:21.615Z,15.00
2017-04-24T04:06:20.659Z,14.78
2017-04-24T04:07:19.209Z,12.82
2017-04-24T04:08:18.207Z,12.78
2017-04-24T04:09:17.200Z,14.40
2017-04-24T04:10:15.763Z,14.40
2017-04-24T04:11:15.067Z,14.50
2017-04-24T04:12:14.244Z,15.48
2017-04-24T04:13:13.655Z,14.50
2017-04-24T04:14:12.307Z,14.63
2017-04-24T04:15:11.307Z,15.80
2017-04-24T04:16:09.939Z,14.65
2017-04-24T04:17:11.256Z,13.63
2017-04-24T04:18:10.362Z,15.07
2017-04-24T04:19:08.974Z,15.00
2017-04-24T04:20:07.679Z,15.45
2017-04-24T04:21:06.685Z,14.73
2017-04-24T04:22:05.668Z,15.37
2017-04-24T04:23:04.777Z,16.40
2017-04-24T04:24:03.832Z,15.23
2017-04-24T04:25:02.543Z,15.33
2017-04-24T04:26:01.490Z,15.33
2017-04-24T04:27:00.451Z,14.23
2017-04-24T04:27:59.835Z,15.63
2017-04-24T04:28:58.852Z,14.70
2017-04-24T04:29:57.740Z,15.10
2017-04-24T04:30:57.127Z,15.33
2017-04-24T04:31:56.204Z,15.38
2017-04-24T04:32:55.332Z,15.57
2017-04-24T04:33:53.989Z,14.57
2017-04-24T04:34:52.611Z,14.75
2017-04-24T04:35:52.015Z,15.85
2017-04-24T04:36:50.707Z,15.40
2017-04-24T04:37:49.789Z,16.83
2017-04-24T04:38:48.398Z,15.73
2017-04-24T04:39:47.466Z,15.25
2017-04-24T04:40:51.379Z,15.67
2017-04-24T04:41:50.132Z,15.67
2017-04-24T04:42:49.159Z,15.25
2017-04-24T04:43:48.180Z,14.52
2017-04-24T04:44:46.832Z,14.48
2017-04-24T04:45:45.777Z,15.08
2017-04-24T04:46:44.825Z,14.10
2017-04-24T04:47:44.238Z,15.42
2017-04-24T04:48:43.530Z,16.25
2017-04-24T04:49:42.516Z,15.70
2017-04-24T04:50:41.634Z,14.20
2017-04-24T04:51:40.730Z,14.72
2017-04-24T04:52:39.756Z,15.58
2017-04-24T04:53:38.381Z,14.22
2017-04-24T04:54:36.996Z,14.17
2017-04-24T04:55:36.063Z,15.95
2017-04-24T04:56:35.066Z,19.30
2017-04-24T04:57:33.743Z,14.85
2017-04-24T04:58:32.441Z,14.25
2017-04-24T04:59:31.557Z,13.83
2017-04-24T05:00:30.619Z,14.25
2017-04-24T05:01:29.712Z,13.90
2017-04-24T05:02:28.730Z,13.95
2017-04-24T05:03:27.459Z,13.35
2017-04-24T05:04:26.541Z,13.68
2017-04-24T05:05:25.521Z,14.05
2017-04-24T05:06:24.053Z,14.60
2017-04-24T05:07:22.647Z,14.63
2017-04-24T05:08:21.291Z,14.32
2017-04-24T05:09:19.910Z,14.43
2017-04-24T05:10:18.920Z,13.12
2017-04-24T05:11:17.475Z,15.80
2017-04-24T05:12:16.396Z,15.58
2017-04-24T05:13:15.408Z,17.97
2017-04-24T05:14:14.367Z,14.77
2017-04-24T05:15:13.390Z,15.15
2017-04-24T05:16:11.994Z,14.52
2017-04-24T05:17:10.996Z,15.67
2017-04-24T05:18:10.003Z,14.40
2017-04-24T05:19:09.032Z,13.62
2017-04-24T05:20:08.056Z,14.68
2017-04-24T05:21:07.068Z,14.83
2017-04-24T05:22:06.080Z,15.97
2017-04-24T05:23:05.096Z,14.58
2017-04-24T05:24:04.069Z,14.72
2017-04-24T05:25:03.015Z,14.38
2017-04-24T05:26:02.105Z,13.83
2017-04-24T05:27:01.485Z,18.85
2017-04-24T05:28:00.491Z,16.60
2017-04-24T05:28:59.499Z,13.40
2017-04-24T05:29:58.520Z,14.45
2017-04-24T05:30:57.591Z,14.40
2017-04-24T05:31:56.661Z,16.10
2017-04-24T05:32:56.363Z,14.88
2017-04-24T05:33:55.367Z,14.97
2017-04-24T05:34:54.348Z,15.52
2017-04-24T05:35:53.291Z,14.05
2017-04-24T05:36:52.252Z,14.55
2017-04-24T05:37:51.257Z,14.32
2017-04-24T05:38:50.250Z,15.18
2017-04-24T05:39:49.211Z,14.47
2017-04-24T05:40:48.251Z,16.05
2017-04-24T05:41:47.293Z,14.38
2017-04-24T05:42:45.855Z,15.60
2017-04-24T05:43:44.883Z,15.58
2017-04-24T05:44:43.936Z,14.35
2017-04-24T05:45:42.877Z,14.37
2017-04-24T05:46:42.255Z,16.30
2017-04-24T05:47:41.199Z,14.22
2017-04-24T05:48:39.872Z,14.85
2017-04-24T05:49:38.838Z,14.58
2017-04-24T05:50:37.906Z,15.40
2017-04-24T05:51:36.966Z,14.97
2017-04-24T05:52:35.947Z,14.50
2017-04-24T05:53:34.911Z,14.85
2017-04-24T05:54:33.418Z,15.63
2017-04-24T05:55:32.471Z,14.78
2017-04-24T05:56:31.467Z,17.17
2017-04-24T05:57:30.469Z,14.78
2017-04-24T05:58:29.483Z,15.00
2017-04-24T05:59:28.497Z,16.02
2017-04-24T06:00:27.547Z,15.50
2017-04-24T06:01:26.672Z,16.48
2017-04-24T06:02:25.872Z,17.22
2017-04-24T06:03:24.855Z,16.57
2017-04-24T06:04:23.829Z,15.18
2017-04-24T06:05:22.871Z,15.52
2017-04-24T06:06:21.855Z,14.72
2017-04-24T06:07:20.867Z,16.77
2017-04-24T06:08:19.852Z,15.50
2017-04-24T06:09:18.851Z,16.43
2017-04-24T06:10:17.868Z,14.70
2017-04-24T06:11:16.891Z,16.03
2017-04-24T06:12:16.009Z,15.87
2017-04-24T06:13:14.643Z,15.63
2017-04-24T06:14:13.968Z,14.67
2017-04-24T06:15:12.462Z,14.45
2017-04-24T06:16:11.827Z,15.18
2017-04-24T06:17:10.861Z,14.48
2017-04-24T06:18:09.831Z,14.15
2017-04-24T06:19:08.827Z,15.97
2017-04-24T06:20:07.807Z,15.38
2017-04-24T06:21:06.771Z,14.68
2017-04-24T06:22:05.731Z,15.43
2017-04-24T06:23:04.687Z,14.70
2017-04-24T06:24:03.644Z,15.98
2017-04-24T06:25:02.671Z,14.62
2017-04-24T06:26:01.615Z,15.55
2017-04-24T06:27:01.021Z,15.52
2017-04-24T06:28:00.759Z,16.62
2017-04-24T06:28:59.767Z,16.43
2017-04-24T06:29:58.735Z,15.63
2017-04-24T06:30:57.739Z,16.30
2017-04-24T06:31:56.735Z,15.37
2017-04-24T06:32:55.721Z,17.12
2017-04-24T06:33:54.692Z,16.27
2017-04-24T06:34:53.675Z,16.07
2017-04-24T06:35:52.691Z,16.18
2017-04-24T06:36:51.723Z,15.37
2017-04-24T06:37:50.712Z,15.93
2017-04-24T06:38:49.727Z,14.87
2017-04-24T06:39:49.136Z,16.33
2017-04-24T06:40:48.104Z,14.88
2017-04-24T06:41:47.096Z,15.72
2017-04-24T06:42:46.435Z,15.43
2017-04-24T06:43:45.407Z,15.45
2017-04-24T06:44:44.363Z,14.83
2017-04-24T06:45:43.695Z,14.53
2017-04-24T06:46:42.674Z,13.85
2017-04-24T06:47:41.647Z,13.45
2017-04-24T06:48:40.260Z,13.85
2017-04-24T06:49:39.243Z,16.00
2017-04-24T06:50:38.263Z,14.50
2017-04-24T06:51:37.307Z,14.25
2017-04-24T06:52:36.294Z,16.07
2017-04-24T06:53:34.851Z,14.58
2017-04-24T06:54:33.832Z,15.27
2017-04-24T06:55:32.786Z,16.20
2017-04-24T06:56:31.319Z,14.88
2017-04-24T06:57:30.299Z,14.33
2017-04-24T06:58:29.277Z,15.60
2017-04-24T06:59:28.260Z,17.72
2017-04-24T07:00:27.278Z,14.60
2017-04-24T07:01:26.327Z,15.33
2017-04-24T07:02:25.335Z,14.93
2017-04-24T07:03:24.328Z,15.90
2017-04-24T07:04:24.094Z,14.00
2017-04-24T07:05:23.030Z,14.57
2017-04-24T07:06:21.991Z,14.43
2017-04-24T07:07:21.001Z,14.27
2017-04-24T07:08:20.035Z,16.07
2017-04-24T07:09:19.055Z,16.07
2017-04-24T07:10:18.044Z,14.88
2017-04-24T07:11:16.985Z,14.50
2017-04-24T07:12:15.549Z,16.10
2017-04-24T07:13:14.476Z,14.00
2017-04-24T07:14:13.470Z,15.15
2017-04-24T07:15:12.551Z,14.72
2017-04-24T07:16:12.234Z,15.15
2017-04-24T07:17:11.243Z,15.98
2017-04-24T07:18:10.212Z,14.90
2017-04-24T07:19:09.260Z,15.23
2017-04-24T07:20:08.182Z,14.90
2017-04-24T07:21:07.196Z,14.55
2017-04-24T07:22:06.191Z,16.97
2017-04-24T07:23:05.154Z,14.97
2017-04-24T07:24:04.182Z,13.90
2017-04-24T07:25:03.252Z,13.62
2017-04-24T07:26:02.183Z,14.93
2017-04-24T07:27:01.144Z,16.22
2017-04-24T07:28:00.488Z,14.67
2017-04-24T07:28:59.502Z,15.12
2017-04-24T07:29:58.510Z,17.22
2017-04-24T07:30:57.502Z,13.68
2017-04-24T07:31:56.579Z,14.73
2017-04-24T07:32:55.595Z,14.23
2017-04-24T07:33:54.579Z,14.82
2017-04-24T07:34:57.297Z,16.13
2017-04-24T07:35:56.290Z,14.28
2017-04-24T07:36:55.256Z,14.75
2017-04-24T07:37:54.227Z,15.62
2017-04-24T07:38:53.180Z,15.37
2017-04-24T07:39:52.180Z,13.87
2017-04-24T07:40:51.202Z,13.57
2017-04-24T07:41:50.194Z,13.08
2017-04-24T07:42:49.200Z,13.20
2017-04-24T07:43:48.143Z,13.37
2017-04-24T07:44:46.850Z,13.70
2017-04-24T07:45:46.191Z,13.95
2017-04-24T07:46:45.191Z,13.33
2017-04-24T07:47:44.182Z,13.10
2017-04-24T07:48:43.201Z,13.82
2017-04-24T07:49:41.813Z,13.23
2017-04-24T07:50:40.981Z,12.83
2017-04-24T07:51:40.008Z,13.25
2017-04-24T07:52:39.021Z,12.08
2017-04-24T07:53:37.624Z,12.75
2017-04-24T07:54:36.582Z,13.35
2017-04-24T07:55:35.624Z,13.60
2017-04-24T07:56:34.645Z,12.98
2017-04-24T07:57:34.377Z,12.22
2017-04-24T07:58:33.396Z,12.90
2017-04-24T07:59:32.794Z,13.48
2017-04-24T08:00:31.783Z,14.32
2017-04-24T08:01:31.428Z,13.65
2017-04-24T08:02:29.983Z,12.63
2017-04-24T08:03:28.959Z,13.12
2017-04-24T08:04:28.005Z,13.07
2017-04-24T08:05:27.140Z,12.65
2017-04-24T08:06:26.164Z,12.12
2017-04-24T08:07:25.136Z,13.03
2017-04-24T08:08:24.175Z,12.07
2017-04-24T08:09:23.139Z,12.17
2017-04-24T08:10:22.185Z,11.82
2017-04-24T08:11:21.221Z,11.60
2017-04-24T08:12:20.206Z,12.58
2017-04-24T08:13:18.796Z,12.18
2017-04-24T08:14:17.775Z,11.97
2017-04-24T08:15:17.144Z,13.33
2017-04-24T08:16:16.141Z,12.23
2017-04-24T08:17:15.172Z,12.67
2017-04-24T08:18:14.179Z,11.95
2017-04-24T08:19:13.153Z,12.82
2017-04-24T08:20:12.143Z,11.58
2017-04-24T08:21:11.095Z,11.90
2017-04-24T08:22:10.091Z,11.27
2017-04-24T08:23:09.124Z,11.18
2017-04-24T08:24:07.695Z,11.93
2017-04-24T08:25:06.675Z,12.57
2017-04-24T08:26:05.651Z,12.43
2017-04-24T08:27:04.619Z,12.80
2017-04-24T08:28:03.632Z,12.20
2017-04-24T08:29:02.228Z,10.93
2017-04-24T08:30:00.823Z,10.62
2017-04-24T08:30:59.857Z,10.75
2017-04-24T08:31:59.247Z,11.57
2017-04-24T08:32:58.216Z,10.05
2017-04-24T08:33:57.228Z,10.25
2017-04-24T08:34:56.375Z,9.87
2017-04-24T08:35:55.372Z,10.00
2017-04-24T08:36:54.358Z,11.17
2017-04-24T08:37:53.367Z,10.83
2017-04-24T08:38:52.339Z,9.12
2017-04-24T08:39:51.359Z,10.43
2017-04-24T08:40:50.419Z,10.67
2017-04-24T08:41:49.412Z,11.02
2017-04-24T08:42:48.366Z,9.87
2017-04-24T08:43:47.107Z,11.28
2017-04-24T08:44:46.047Z,9.90
2017-04-24T08:45:45.042Z,9.82
2017-04-24T08:46:44.042Z,9.17
2017-04-24T08:47:43.274Z,8.52
2017-04-24T08:48:42.215Z,9.77
2017-04-24T08:49:40.861Z,9.87
2017-04-24T08:50:39.783Z,10.05
2017-04-24T08:51:38.344Z,12.27
2017-04-24T08:52:37.351Z,9.90
2017-04-24T08:53:36.291Z,10.43
2017-04-24T08:54:35.656Z,9.67
2017-04-24T08:55:35.099Z,9.45
2017-04-24T08:56:34.005Z,10.80
2017-04-24T08:57:32.843Z,10.95
2017-04-24T08:58:31.957Z,10.75
2017-04-24T08:59:30.915Z,10.68
2017-04-24T09:00:29.895Z,10.63
2017-04-24T09:01:29.269Z,10.52
2017-04-24T09:02:28.236Z,10.25
2017-04-24T09:03:27.253Z,10.25
2017-04-24T09:04:26.635Z,9.97
2017-04-24T09:05:25.595Z,11.28
2017-04-24T09:06:24.585Z,10.27
2017-04-24T09:07:23.220Z,11.38
2017-04-24T09:08:22.200Z,10.48
2017-04-24T09:09:21.199Z,10.57
2017-04-24T09:10:20.207Z,10.03
2017-04-24T09:11:19.156Z,9.90
2017-04-24T09:12:18.148Z,9.12
2017-04-24T09:13:17.205Z,11.52
2017-04-24T09:14:16.588Z,9.92
2017-04-24T09:15:15.571Z,10.62
2017-04-24T09:16:14.554Z,10.85
2017-04-24T09:17:13.571Z,10.23
2017-04-24T09:18:12.194Z,10.67
2017-04-24T09:19:11.241Z,11.17
2017-04-24T09:20:09.876Z,11.23
2017-04-24T09:21:09.216Z,10.97
2017-04-24T09:22:08.204Z,11.02
2017-04-24T09:23:06.802Z,10.77
2017-04-24T09:24:05.803Z,11.13
2017-04-24T09:25:04.734Z,10.10
2017-04-24T09:26:03.335Z,11.18
2017-04-24T09:27:02.314Z,9.47
2017-04-24T09:28:01.696Z,10.07
2017-04-24T09:29:00.292Z,10.25
2017-04-24T09:29:59.363Z,10.70
2017-04-24T09:30:58.305Z,10.77
2017-04-24T09:31:57.304Z,10.35
2017-04-24T09:32:56.312Z,11.75
2017-04-24T09:33:54.895Z,10.32
2017-04-24T09:34:53.843Z,11.45
2017-04-24T09:35:52.823Z,11.92
2017-04-24T09:36:51.815Z,10.80
2017-04-24T09:37:50.773Z,11.20
2017-04-24T09:38:49.768Z,10.17
2017-04-24T09:39:48.780Z,11.15
2017-04-24T09:40:47.737Z,10.57
2017-04-24T09:41:46.340Z,10.20
2017-04-24T09:42:45.280Z,10.83
2017-04-24T09:43:44.319Z,10.23
2017-04-24T09:44:43.388Z,11.03
2017-04-24T09:45:42.391Z,11.00
2017-04-24T09:46:40.998Z,11.68
2017-04-24T09:47:39.951Z,10.33
2017-04-24T09:48:38.983Z,10.95
2017-04-24T09:49:38.000Z,10.65
2017-04-24T09:50:36.947Z,9.60
2017-04-24T09:51:35.959Z,9.87
2017-04-24T09:52:35.018Z,10.03
2017-04-24T09:53:34.019Z,9.95
2017-04-24T09:54:33.056Z,10.28
2017-04-24T09:55:32.471Z,11.27
2017-04-24T09:56:31.097Z,9.73
2017-04-24T09:57:30.081Z,11.02
2017-04-24T09:58:29.477Z,11.05
2017-04-24T09:59:28.483Z,10.45
2017-04-24T10:00:27.169Z,9.98
2017-04-24T10:01:26.184Z,10.50
2017-04-24T10:02:25.204Z,10.55
2017-04-24T10:03:24.191Z,13.42
2017-04-24T10:04:23.545Z,9.98
2017-04-24T10:05:22.588Z,9.78
2017-04-24T10:06:21.679Z,9.80
2017-04-24T10:07:20.671Z,10.42
2017-04-24T10:08:19.665Z,9.77
2017-04-24T10:09:18.656Z,10.48
2017-04-24T10:10:17.578Z,8.48
2017-04-24T10:11:16.973Z,10.23
2017-04-24T10:12:15.954Z,10.47
2017-04-24T10:13:15.038Z,10.02
2017-04-24T10:14:13.608Z,9.28
2017-04-24T10:15:13.004Z,10.02
2017-04-24T10:16:12.399Z,10.18
2017-04-24T10:17:11.440Z,10.00
2017-04-24T10:18:10.132Z,10.45
2017-04-24T10:19:09.141Z,9.58
2017-04-24T10:20:08.123Z,10.00
2017-04-24T10:21:07.136Z,10.58
2017-04-24T10:22:06.087Z,10.42
2017-04-24T10:23:05.183Z,9.28
2017-04-24T10:24:04.214Z,8.35
2017-04-24T10:25:03.243Z,10.07
2017-04-24T10:26:02.199Z,10.12
2017-04-24T10:27:01.268Z,10.80
2017-04-24T10:28:00.295Z,10.37
2017-04-24T10:28:59.391Z,10.45
2017-04-24T10:29:58.019Z,10.35
2017-04-24T10:30:57.071Z,10.20
2017-04-24T10:31:56.104Z,10.57
2017-04-24T10:32:55.072Z,10.97
2017-04-24T10:33:54.059Z,12.70
2017-04-24T10:34:52.604Z,9.87
2017-04-24T10:35:51.654Z,9.35
2017-04-24T10:36:50.274Z,9.20
2017-04-24T10:37:49.746Z,9.50
2017-04-24T10:38:48.807Z,10.67
2017-04-24T10:39:47.836Z,10.12
2017-04-24T10:40:46.840Z,9.57
2017-04-24T10:41:45.912Z,9.43
2017-04-24T10:42:44.519Z,10.40
2017-04-24T10:43:43.550Z,10.18
2017-04-24T10:44:42.610Z,9.67
2017-04-24T10:45:41.566Z,10.82
2017-04-24T10:46:40.608Z,10.10
2017-04-24T10:47:39.629Z,9.65
2017-04-24T10:48:38.853Z,9.52
2017-04-24T10:49:37.861Z,9.52
2017-04-24T10:50:36.943Z,9.55
2017-04-24T10:51:35.924Z,9.32
2017-04-24T10:52:35.023Z,9.68
2017-04-24T10:53:34.409Z,9.58
2017-04-24T10:54:33.525Z,9.75
2017-04-24T10:55:32.533Z,8.82
2017-04-24T10:56:31.708Z,9.98
2017-04-24T10:57:31.252Z,9.77
2017-04-24T10:58:30.281Z,8.45
2017-04-24T10:59:28.856Z,9.83
2017-04-24T11:00:27.497Z,9.38
2017-04-24T11:01:26.520Z,9.43
2017-04-24T11:02:25.514Z,9.90
2017-04-24T11:03:24.108Z,9.27
2017-04-24T11:04:23.187Z,10.22
2017-04-24T11:05:22.154Z,9.32
2017-04-24T11:06:21.159Z,9.12
2017-04-24T11:07:20.159Z,9.57
2017-04-24T11:08:19.292Z,9.78
2017-04-24T11:09:18.389Z,10.45
2017-04-24T11:10:17.375Z,11.20
2017-04-24T11:11:16.402Z,11.12
2017-04-24T11:12:14.959Z,10.00
2017-04-24T11:13:13.547Z,10.67
2017-04-24T11:14:12.939Z,9.78
2017-04-24T11:15:11.945Z,9.67
2017-04-24T11:16:10.979Z,10.45
2017-04-24T11:17:10.053Z,9.00
2017-04-24T11:18:09.036Z,9.12
2017-04-24T11:19:07.651Z,9.38
2017-04-24T11:20:06.685Z,11.12
2017-04-24T11:21:05.656Z,10.05
2017-04-24T11:22:04.659Z,10.47
2017-04-24T11:23:03.650Z,13.08
2017-04-24T11:24:02.643Z,11.15
2017-04-24T11:25:01.259Z,9.75
2017-04-24T11:26:00.216Z,10.40
2017-04-24T11:26:59.260Z,11.22
2017-04-24T11:27:58.203Z,10.95
2017-04-24T11:28:57.207Z,11.02
2017-04-24T11:29:57.712Z,10.98
2017-04-24T11:30:56.487Z,11.70
2017-04-24T11:31:55.079Z,10.52
2017-04-24T11:32:54.475Z,11.17
2017-04-24T11:33:53.436Z,11.15
2017-04-24T11:34:52.415Z,12.28
2017-04-24T11:35:51.527Z,10.95
2017-04-24T11:36:50.545Z,11.08
2017-04-24T11:37:49.546Z,11.73
2017-04-24T11:38:48.572Z,10.15
2017-04-24T11:39:47.537Z,11.67
2017-04-24T11:40:46.988Z,10.75
2017-04-24T11:41:45.979Z,12.28
2017-04-24T11:42:44.959Z,11.02
2017-04-24T11:43:44.037Z,10.90
2017-04-24T11:44:42.999Z,12.20
2017-04-24T11:45:41.997Z,11.15
2017-04-24T11:46:40.982Z,11.47
2017-04-24T11:47:39.951Z,11.25
2017-04-24T11:48:38.620Z,10.83
2017-04-24T11:49:37.649Z,11.05
2017-04-24T11:50:36.601Z,10.62
2017-04-24T11:51:35.619Z,11.13
2017-04-24T11:52:34.652Z,10.93
2017-04-24T11:53:33.663Z,11.62
2017-04-24T11:54:32.663Z,11.52
2017-04-24T11:55:32.424Z,9.70
2017-04-24T11:56:31.439Z,10.45
2017-04-24T11:57:30.418Z,12.02
2017-04-24T11:58:29.063Z,11.63
2017-04-24T11:59:28.051Z,10.77
2017-04-24T12:00:27.052Z,12.08
2017-04-24T12:01:26.088Z,10.78
2017-04-24T12:02:25.111Z,11.08
2017-04-24T12:03:24.114Z,10.42
2017-04-24T12:04:23.147Z,10.37
2017-04-24T12:05:22.195Z,12.45
2017-04-24T12:06:21.157Z,11.25
2017-04-24T12:07:20.114Z,11.78
2017-04-24T12:08:18.804Z,11.08
2017-04-24T12:09:17.801Z,10.68
2017-04-24T12:10:16.807Z,9.87
2017-04-24T12:11:15.833Z,11.08
2017-04-24T12:12:14.772Z,11.18
2017-04-24T12:13:13.823Z,11.08
2017-04-24T12:14:13.183Z,11.35
2017-04-24T12:15:11.779Z,11.73
2017-04-24T12:16:10.766Z,12.12
2017-04-24T12:17:09.754Z,11.45
2017-04-24T12:18:08.723Z,11.82
2017-04-24T12:19:07.719Z,10.63
2017-04-24T12:20:06.818Z,11.33
2017-04-24T12:21:05.747Z,11.30
2017-04-24T12:22:04.751Z,10.65
2017-04-24T12:23:03.861Z,10.48
2017-04-24T12:24:02.796Z,10.82
2017-04-24T12:25:01.814Z,11.27
2017-04-24T12:26:00.916Z,11.03
2017-04-24T12:27:00.248Z,11.33
2017-04-24T12:27:59.271Z,10.62
2017-04-24T12:28:58.215Z,10.18
2017-04-24T12:29:57.184Z,10.25
2017-04-24T12:30:56.187Z,10.97
2017-04-24T12:31:59.406Z,11.00
2017-04-24T12:32:58.131Z,10.65
2017-04-24T12:33:57.138Z,10.37
2017-04-24T12:34:56.128Z,11.13
2017-04-24T12:35:55.162Z,12.47
2017-04-24T12:36:54.164Z,11.92
2017-04-24T12:37:53.245Z,10.03
2017-04-24T12:38:52.275Z,10.28
2017-04-24T12:39:51.362Z,10.77
2017-04-24T12:40:50.279Z,10.58
2017-04-24T12:41:49.344Z,11.40